Time;durP1;ratioP1;P1;durP2;ratioP2;P2;SDS_P1;SDS_P2;PMS_P1;PMS_P2;Temp;Humidity;BMP_temperature;BMP_pressure;BME280_temperature;BME280_humidity;BME280_pressure;Samples;Min_cycle;Max_cycle;Signal;HPM_P1;HPM_P2
2023/07/13 00:01:12;;;;;;;11.85;7.38;;;;;;;28.24;47.71;98867.03;4920368;29;20046;-79
2023/07/13 00:03:40;;;;;;;9.98;7.28;;;;;;;28.18;48.02;98868.78;4936063;29;20546;-79
2023/07/13 00:06:06;;;;;;;10.48;7.38;;;;;;;28.18;47.88;98862.56;4937475;29;20039;-79
2023/07/13 00:08:32;;;;;;;10.98;7.60;;;;;;;28.16;47.95;98870.84;4937364;29;20063;-78
2023/07/13 00:10:59;;;;;;;10.45;8.27;;;;;;;28.13;48.06;98860.56;4919940;29;20099;-77
2023/07/13 00:13:24;;;;;;;12.48;7.53;;;;;;;28.17;47.91;98860.97;4937071;29;20114;-77
2023/07/13 00:15:50;;;;;;;10.13;7.32;;;;;;;28.16;47.86;98854.75;4937031;29;20123;-81
2023/07/13 00:18:15;;;;;;;10.50;7.57;;;;;;;28.10;48.05;98864.56;4919751;29;20138;-77
2023/07/13 00:20:41;;;;;;;10.68;7.70;;;;;;;28.06;48.18;98854.50;4934924;29;20494;-76
2023/07/13 00:23:07;;;;;;;10.00;7.07;;;;;;;28.01;48.02;98849.00;4937264;29;20066;-80
2023/07/13 00:25:32;;;;;;;9.13;7.25;;;;;;;27.97;48.15;98841.41;4919902;29;20060;-84
2023/07/13 00:27:58;;;;;;;11.60;7.78;;;;;;;27.99;48.33;98849.25;4919921;29;20066;-77
2023/07/13 00:30:23;;;;;;;11.75;7.55;;;;;;;27.97;48.16;98845.94;4902087;29;20051;-78
2023/07/13 00:32:49;;;;;;;10.60;7.43;;;;;;;27.91;48.19;98838.78;4917871;29;20075;-79
2023/07/13 00:35:15;;;;;;;9.60;7.45;;;;;;;27.90;48.16;98837.97;4935033;29;20146;-78
2023/07/13 00:37:40;;;;;;;10.43;7.53;;;;;;;27.91;48.22;98847.66;4919560;29;20077;-78
2023/07/13 00:40:06;;;;;;;13.77;8.20;;;;;;;27.87;48.53;98838.41;4918691;29;20480;-79
2023/07/13 00:42:32;;;;;;;10.82;7.40;;;;;;;27.82;48.72;98834.75;4919543;29;20031;-78
2023/07/13 00:45:03;;;;;;;11.45;7.35;;;;;;;27.84;48.85;98836.19;4902091;29;20134;-80
2023/07/13 00:47:29;;;;;;;9.88;6.90;;;;;;;27.76;48.64;98817.75;4928742;29;20030;-78
2023/07/13 00:49:54;;;;;;;11.27;6.88;;;;;;;27.78;48.59;98829.03;4926323;29;20035;-79
2023/07/13 00:52:20;;;;;;;9.82;7.43;;;;;;;27.78;48.72;98835.25;4908067;29;20032;-79
2023/07/13 00:54:46;;;;;;;9.25;7.22;;;;;;;27.78;48.72;98837.09;4909244;29;20036;-78
2023/07/13 00:57:15;;;;;;;10.68;7.38;;;;;;;27.77;48.51;98832.78;4909248;29;20036;-78
2023/07/13 00:59:42;;;;;;;13.77;7.63;;;;;;;27.76;48.75;98833.81;4892430;29;20040;-78
2023/07/13 01:02:07;;;;;;;11.13;7.90;;;;;;;27.70;48.68;98826.69;4877582;29;20027;-78
2023/07/13 01:04:33;;;;;;;9.23;7.43;;;;;;;27.67;49.00;98819.91;4893729;29;20032;-78
2023/07/13 01:06:58;;;;;;;10.38;7.97;;;;;;;27.68;48.84;98840.31;4892448;29;20124;-78
2023/07/13 01:09:26;;;;;;;12.50;7.70;;;;;;;27.64;48.91;98831.06;4893582;29;20031;-79
2023/07/13 01:11:51;;;;;;;10.02;7.65;;;;;;;27.61;49.07;98831.53;4877778;29;20123;-78
2023/07/13 01:14:17;;;;;;;11.23;7.78;;;;;;;27.59;48.81;98834.44;4907554;29;20100;-79
2023/07/13 01:16:47;;;;;;;11.57;7.50;;;;;;;27.51;49.20;98829.38;4909177;29;20036;-78
2023/07/13 01:19:36;;;;;;;10.77;7.65;;;;;;;27.53;48.98;98829.16;4893748;29;20072;-78
2023/07/13 01:22:04;;;;;;;9.73;7.30;;;;;;;27.51;49.32;98840.09;4907594;29;20085;-78
2023/07/13 01:24:29;;;;;;;10.25;7.35;;;;;;;27.48;49.08;98840.56;4892816;29;20024;-79
2023/07/13 01:26:55;;;;;;;10.82;7.63;;;;;;;27.48;49.20;98837.06;4909134;29;20504;-78
2023/07/13 01:29:21;;;;;;;15.57;7.60;;;;;;;27.45;49.46;98832.97;4907163;29;20111;-79
2023/07/13 01:31:46;;;;;;;10.90;7.32;;;;;;;27.43;49.53;98835.88;4913181;29;20032;-78
2023/07/13 01:34:12;;;;;;;9.95;7.22;;;;;;;27.42;49.29;98833.41;4907974;29;20028;-78
2023/07/13 01:36:38;;;;;;;10.15;7.68;;;;;;;27.38;49.27;98832.25;4893996;29;20032;-78
2023/07/13 01:39:04;;;;;;;8.27;7.22;;;;;;;27.29;49.35;98825.50;4906052;29;20098;-78
2023/07/13 01:41:29;;;;;;;11.20;8.10;;;;;;;27.33;49.63;98829.41;4897096;29;20035;-79
2023/07/13 01:43:55;;;;;;;12.15;7.85;;;;;;;27.35;49.32;98832.69;4931489;29;20047;-78
2023/07/13 01:46:20;;;;;;;14.32;7.63;;;;;;;27.35;49.24;98830.00;4932289;29;20035;-78
2023/07/13 01:48:46;;;;;;;9.93;7.90;;;;;;;27.34;49.84;98833.72;4892261;29;20036;-78
2023/07/13 01:51:12;;;;;;;10.43;7.45;;;;;;;27.29;49.69;98830.88;4904509;29;20127;-78
2023/07/13 01:53:37;;;;;;;12.32;7.75;;;;;;;27.24;49.98;98828.84;4890605;29;20123;-79
2023/07/13 01:56:03;;;;;;;15.52;8.10;;;;;;;27.20;49.83;98825.81;4905754;29;20501;-79
2023/07/13 01:58:28;;;;;;;9.88;7.78;;;;;;;27.11;49.85;98829.81;4873793;29;20032;-79
2023/07/13 02:00:54;;;;;;;10.52;8.02;;;;;;;27.14;50.28;98842.78;4906825;29;20032;-78
2023/07/13 02:03:19;;;;;;;13.32;7.57;;;;;;;27.11;49.99;98840.53;4905394;29;20496;-79
2023/07/13 02:05:45;;;;;;;10.52;7.75;;;;;;;27.12;50.12;98838.66;4890313;29;20072;-79
2023/07/13 02:08:11;;;;;;;13.38;8.10;;;;;;;27.11;50.16;98845.09;4921004;29;20039;-79
2023/07/13 02:10:36;;;;;;;17.60;8.35;;;;;;;27.11;50.30;98840.53;4893839;29;20035;-80
2023/07/13 02:13:03;;;;;;;15.23;7.65;;;;;;;27.06;50.38;98833.16;4899030;29;20032;-78
2023/07/13 02:15:29;;;;;;;14.03;7.93;;;;;;;27.08;50.17;98832.94;4914816;29;20036;-78
2023/07/13 02:17:54;;;;;;;11.27;8.23;;;;;;;27.11;50.37;98837.03;4899515;29;20063;-78
2023/07/13 02:20:20;;;;;;;11.85;7.90;;;;;;;27.12;50.50;98831.47;4898737;29;20044;-78
2023/07/13 02:22:45;;;;;;;11.77;7.57;;;;;;;27.11;50.33;98834.38;4915154;29;20040;-78
2023/07/13 02:25:11;;;;;;;11.45;7.95;;;;;;;27.10;50.11;98841.56;4899071;29;20040;-79
2023/07/13 02:27:36;;;;;;;11.85;8.80;;;;;;;27.02;50.42;98831.97;4916366;29;20119;-78
2023/07/13 02:30:02;;;;;;;10.75;8.30;;;;;;;27.03;50.59;98840.84;4899076;29;20045;-79
2023/07/13 02:32:28;;;;;;;13.57;7.80;;;;;;;27.01;50.69;98837.53;4915292;29;20043;-78
2023/07/13 02:34:53;;;;;;;12.73;7.85;;;;;;;26.96;50.52;98835.53;4899695;29;20028;-78
2023/07/13 02:37:19;;;;;;;12.90;8.45;;;;;;;26.94;50.58;98836.78;4899369;29;20059;-78
2023/07/13 02:39:45;;;;;;;10.45;8.38;;;;;;;26.89;50.52;98835.59;4899436;29;20106;-78
2023/07/13 02:42:10;;;;;;;11.63;7.97;;;;;;;26.87;50.74;98842.22;4914912;29;20044;-78
2023/07/13 02:44:36;;;;;;;10.43;8.05;;;;;;;26.85;51.08;98845.13;4914811;29;20080;-78
2023/07/13 02:47:01;;;;;;;15.00;8.18;;;;;;;26.81;50.92;98840.44;4883371;29;20388;-79
2023/07/13 02:49:27;;;;;;;11.18;8.63;;;;;;;26.87;50.64;98840.34;4899158;29;20029;-79
2023/07/13 02:51:52;;;;;;;11.05;7.78;;;;;;;26.86;50.76;98836.03;4914772;29;20077;-79
2023/07/13 02:54:17;;;;;;;12.07;8.40;;;;;;;26.90;50.91;98839.09;4915030;29;20040;-78
2023/07/13 02:56:43;;;;;;;15.77;8.40;;;;;;;26.91;50.97;98835.38;4918363;29;20087;-79
2023/07/13 02:59:09;;;;;;;12.13;8.05;;;;;;;26.92;50.78;98842.38;4918085;29;20034;-78
2023/07/13 03:01:35;;;;;;;10.48;7.85;;;;;;;26.99;50.48;98843.13;4918168;29;20538;-78
2023/07/13 03:04:00;;;;;;;12.10;8.05;;;;;;;27.04;50.37;98840.63;4902370;29;20121;-79
2023/07/13 03:06:29;;;;;;;13.48;8.00;;;;;;;27.08;50.40;98851.69;4902158;29;20072;-79
2023/07/13 03:08:55;;;;;;;14.60;8.80;;;;;;;27.18;50.17;98843.94;4902797;29;20071;-80
2023/07/13 03:11:20;;;;;;;12.57;8.55;;;;;;;27.19;50.13;98840.25;4902530;29;20071;-79
2023/07/13 03:13:46;;;;;;;12.57;7.82;;;;;;;27.23;49.96;98837.91;4912830;29;20060;-78
2023/07/13 03:16:12;;;;;;;13.63;8.52;;;;;;;27.32;49.97;98843.84;4898901;29;20036;-78
2023/07/13 03:18:37;;;;;;;9.27;7.60;;;;;;;27.39;49.74;98848.09;4902167;29;20139;-79
2023/07/13 03:21:03;;;;;;;11.65;8.32;;;;;;;27.51;49.25;98858.88;4902096;29;20083;-79
2023/07/13 03:23:28;;;;;;;11.57;7.47;;;;;;;27.62;49.05;98844.72;4901794;29;20028;-78
2023/07/13 03:26:02;;;;;;;12.05;7.70;;;;;;;27.77;48.78;98848.88;4917546;29;20043;-78
2023/07/13 03:28:27;;;;;;;10.98;7.47;;;;;;;27.98;48.20;98850.28;4918792;29;20039;-78
2023/07/13 03:31:20;;;;;;;9.63;7.75;;;;;;;28.24;47.80;98853.63;4917612;29;20032;-78
2023/07/13 03:33:46;;;;;;;10.90;7.97;;;;;;;28.49;47.26;98858.81;4863607;29;20116;-78
2023/07/13 03:36:20;;;;;;;11.20;8.02;;;;;;;28.71;46.60;98851.03;4863396;29;20087;-79
2023/07/13 03:38:49;;;;;;;12.02;7.80;;;;;;;28.97;45.78;98854.31;4863967;29;20037;-79
2023/07/13 03:41:16;;;;;;;13.15;7.35;;;;;;;29.27;45.15;98842.63;4878492;29;20485;-78
2023/07/13 03:43:42;;;;;;;16.95;7.47;;;;;;;29.63;44.64;98859.50;4862918;29;20073;-79
2023/07/13 03:46:07;;;;;;;8.93;7.05;;;;;;;30.00;44.01;98853.75;4847468;29;20109;-79
2023/07/13 03:48:33;;;;;;;10.40;6.93;;;;;;;30.37;42.78;98848.75;4878270;29;20036;-80
2023/07/13 03:50:58;;;;;;;9.98;7.45;;;;;;;30.70;42.21;98847.16;4855245;29;20084;-80
2023/07/13 03:53:24;;;;;;;9.07;7.35;;;;;;;31.07;41.35;98849.34;4880941;29;20041;-78
2023/07/13 03:55:49;;;;;;;9.57;7.43;;;;;;;31.48;40.50;98840.97;4881657;29;20048;-79
2023/07/13 03:58:44;;;;;;;14.52;7.20;;;;;;;31.90;39.67;98849.28;4880704;29;20465;-79
2023/07/13 04:01:10;;;;;;;8.95;7.05;;;;;;;32.24;39.07;98848.28;4841409;29;20159;-79
2023/07/13 04:03:36;;;;;;;9.40;7.10;;;;;;;32.56;38.30;98851.00;4841892;29;20137;-79
2023/07/13 04:06:06;;;;;;;13.10;7.20;;;;;;;32.90;37.85;98849.91;4841124;29;20050;-79
2023/07/13 04:08:33;;;;;;;8.70;6.90;;;;;;;33.31;36.84;98855.56;4841002;29;20618;-79
2023/07/13 04:10:59;;;;;;;15.18;7.38;;;;;;;33.71;35.99;98851.41;4863883;29;20045;-79
2023/07/13 04:13:25;;;;;;;9.23;6.80;;;;;;;34.12;35.91;98858.81;4863088;29;20037;-79
2023/07/13 04:15:51;;;;;;;21.30;7.40;;;;;;;34.47;34.96;98854.50;4878187;29;20152;-79
2023/07/13 04:18:19;;;;;;;8.85;7.28;;;;;;;34.69;34.08;98849.59;4877884;29;20481;-79
2023/07/13 04:20:45;;;;;;;11.30;7.40;;;;;;;35.07;33.58;98852.81;4877925;29;20177;-79
2023/07/13 04:23:11;;;;;;;21.80;7.57;;;;;;;35.41;33.19;98854.06;4862323;29;20044;-79
2023/07/13 04:25:36;;;;;;;19.45;7.88;;;;;;;35.71;32.51;98853.13;4878044;29;20053;-79
2023/07/13 04:28:03;;;;;;;19.77;7.45;;;;;;;36.10;31.90;98852.34;4862262;29;20037;-85
2023/07/13 04:30:28;;;;;;;25.33;8.27;;;;;;;36.43;31.74;98860.84;4877635;29;20088;-86
2023/07/13 04:32:54;;;;;;;21.45;7.55;;;;;;;36.74;30.66;98858.69;4877996;29;20045;-86
2023/07/13 04:35:23;;;;;;;20.08;7.60;;;;;;;37.10;30.39;98863.75;4878355;29;20051;-87
2023/07/13 04:37:50;;;;;;;24.70;8.23;;;;;;;37.51;29.66;98864.38;4902121;29;20040;-87
2023/07/13 04:40:16;;;;;;;25.52;7.75;;;;;;;37.86;29.36;98863.13;4916360;29;20028;-88
2023/07/13 04:42:42;;;;;;;29.83;7.65;;;;;;;38.23;28.49;98855.25;4901857;29;20099;-86
2023/07/13 04:45:08;;;;;;;22.40;7.75;;;;;;;38.37;27.75;98867.00;4900820;29;20504;-87
2023/07/13 04:47:33;;;;;;;24.80;8.30;;;;;;;38.34;27.53;98871.13;4884801;29;20031;-85
2023/07/13 04:49:59;;;;;;;26.00;7.32;;;;;;;38.93;26.66;98867.16;4901120;29;20032;-87
2023/07/13 04:52:24;;;;;;;30.85;7.47;;;;;;;39.18;26.56;98863.97;4919356;29;20044;-87
2023/07/13 04:54:50;;;;;;;26.83;7.95;;;;;;;39.60;25.71;98862.03;4936230;29;20471;-87
2023/07/13 04:57:16;;;;;;;23.23;8.75;;;;;;;39.98;25.42;98866.41;4934756;29;20036;-86
2023/07/13 04:59:41;;;;;;;24.52;7.22;;;;;;;40.30;24.89;98864.56;4908380;29;20155;-87
2023/07/13 05:02:07;;;;;;;32.28;8.35;;;;;;;40.46;24.69;98868.53;4936775;29;20028;-88
2023/07/13 05:04:32;;;;;;;23.40;8.88;;;;;;;40.77;24.33;98870.50;4920001;29;20114;-85
2023/07/13 05:06:59;;;;;;;23.42;7.78;;;;;;;41.03;24.31;98878.84;4903387;29;20491;-80
2023/07/13 05:09:24;;;;;;;22.75;8.43;;;;;;;41.43;23.90;98878.00;4918765;29;20047;-81
2023/07/13 05:11:50;;;;;;;24.77;9.40;;;;;;;41.74;23.62;98880.69;4919165;29;20039;-83
2023/07/13 05:14:16;;;;;;;27.15;9.43;;;;;;;42.07;23.92;98873.94;4919034;29;20035;-78
2023/07/13 05:16:42;;;;;;;26.42;8.00;;;;;;;42.62;23.30;98877.91;4937255;29;20027;-84
2023/07/13 05:19:08;;;;;;;27.83;8.63;;;;;;;43.15;22.69;98878.56;4924287;29;20043;-82
2023/07/13 05:21:33;;;;;;;24.08;8.45;;;;;;;43.69;22.12;98884.22;4922760;29;20107;-82
2023/07/13 05:23:59;;;;;;;27.50;9.30;;;;;;;44.09;20.97;98871.94;4903611;29;20491;-84
2023/07/13 05:26:24;;;;;;;31.67;9.13;;;;;;;44.41;21.22;98872.34;4935562;29;20048;-79
2023/07/13 05:28:50;;;;;;;24.07;8.80;;;;;;;44.75;20.81;98875.88;4940714;29;20040;-80
2023/07/13 05:31:15;;;;;;;26.70;9.40;;;;;;;44.88;20.24;98876.69;4918477;29;20039;-82
2023/07/13 05:33:41;;;;;;;22.97;9.20;;;;;;;45.15;20.26;98878.78;4930832;29;20528;-81
2023/07/13 05:36:07;;;;;;;25.50;9.57;;;;;;;45.53;19.75;98881.53;4921659;29;20086;-81
2023/07/13 05:38:32;;;;;;;22.40;8.52;;;;;;;45.97;18.97;98878.91;4920140;29;20052;-92
2023/07/13 05:40:58;;;;;;;21.33;8.10;;;;;;;46.37;18.98;98884.38;4937835;29;20115;-74
2023/07/13 05:43:23;;;;;;;23.77;7.50;;;;;;;46.56;19.37;98883.72;4932165;29;20047;-79
2023/07/13 05:45:49;;;;;;;20.60;7.03;;;;;;;46.87;18.41;98884.09;4918278;29;20039;-80
2023/07/13 05:48:15;;;;;;;20.83;7.03;;;;;;;47.15;18.26;98875.72;4933863;29;20487;-80
2023/07/13 05:50:40;;;;;;;16.20;6.50;;;;;;;47.43;18.15;98881.13;4916964;29;20086;-78
2023/07/13 05:53:06;;;;;;;16.43;6.20;;;;;;;47.64;18.02;98883.53;4886931;29;20040;-80
2023/07/13 05:55:32;;;;;;;22.27;6.27;;;;;;;47.80;17.77;98882.72;4886889;29;20372;-78
2023/07/13 05:57:58;;;;;;;15.30;6.00;;;;;;;47.97;18.01;98878.72;4902514;29;20078;-74
2023/07/13 06:00:24;;;;;;;21.88;6.28;;;;;;;48.12;17.46;98877.06;4918166;29;20050;-77
2023/07/13 06:02:49;;;;;;;;;;;;;;;48.09;17.28;98877.78;4902994;29;20039;-80
2023/07/13 06:05:15;;;;;;;17.80;5.77;;;;;;;48.35;17.18;98880.66;4917903;29;19911;-79
2023/07/13 06:07:41;;;;;;;14.52;5.70;;;;;;;48.44;17.24;98887.94;4903626;29;20126;-86
2023/07/13 06:10:07;;;;;;;10.10;5.90;;;;;;;48.51;17.29;98893.63;4910074;29;20039;-86
2023/07/13 06:12:32;;;;;;;9.18;5.53;;;;;;;48.66;17.10;98883.59;4918356;29;20407;-80
2023/07/13 06:14:58;;;;;;;15.17;5.50;;;;;;;48.76;16.49;98888.53;4917961;29;20410;-88
2023/07/13 06:17:23;;;;;;;15.47;5.80;;;;;;;48.77;17.32;98889.31;4902869;29;20040;-78
2023/07/13 06:19:49;;;;;;;19.13;7.13;;;;;;;48.74;16.69;98888.06;4918211;29;20107;-78
2023/07/13 06:22:14;;;;;;;14.53;5.70;;;;;;;48.76;16.97;98893.25;4916990;29;20476;-84
2023/07/13 06:24:40;;;;;;;11.67;5.60;;;;;;;48.79;16.26;98887.00;4899338;29;20058;-84
2023/07/13 06:27:05;;;;;;;14.43;5.60;;;;;;;48.89;16.65;98897.47;4933292;29;20503;-81
